createdAt,value
2022-10-22T00:00:25.202Z,1006.11
2022-10-22T00:01:25.144Z,1006.12
2022-10-22T00:02:25.219Z,1006.14
2022-10-22T00:03:25.131Z,1006.13
2022-10-22T00:04:25.167Z,1006.22
2022-10-22T00:05:25.096Z,1006.17
2022-10-22T00:06:25.129Z,1006.11
2022-10-22T00:07:25.093Z,1006.10
2022-10-22T00:08:25.075Z,1006.06
2022-10-22T00:09:25.054Z,1006.04
2022-10-22T00:10:25.077Z,1006.09
2022-10-22T00:11:25.985Z,1006.10
2022-10-22T00:12:25.020Z,1006.08
2022-10-22T00:13:25.077Z,1006.12
2022-10-22T00:14:25.007Z,1006.14
2022-10-22T00:15:24.992Z,1006.16
2022-10-22T00:16:25.008Z,1006.23
2022-10-22T00:17:24.996Z,1006.20
2022-10-22T00:18:25.000Z,1006.24
2022-10-22T00:19:24.952Z,1006.19
2022-10-22T00:20:24.958Z,1006.21
2022-10-22T00:21:24.969Z,1006.24
2022-10-22T00:22:24.941Z,1006.25
2022-10-22T00:23:24.908Z,1006.26
2022-10-22T00:24:24.883Z,1006.25
2022-10-22T00:25:24.882Z,1006.25
2022-10-22T00:26:24.889Z,1006.25
2022-10-22T00:27:24.887Z,1006.28
2022-10-22T00:28:24.861Z,1006.33
2022-10-22T00:29:24.842Z,1006.32
2022-10-22T00:30:24.825Z,1006.30
2022-10-22T00:31:24.822Z,1006.21
2022-10-22T00:32:24.803Z,1006.23
2022-10-22T00:33:24.822Z,1006.22
2022-10-22T00:34:24.770Z,1006.24
2022-10-22T00:35:24.796Z,1006.37
2022-10-22T00:36:24.749Z,1006.29
2022-10-22T00:37:24.743Z,1006.28
2022-10-22T00:38:24.724Z,1006.27
2022-10-22T00:39:24.723Z,1006.25
2022-10-22T00:40:24.705Z,1006.23
2022-10-22T00:41:24.744Z,1006.20
2022-10-22T00:42:24.683Z,1006.28
2022-10-22T00:43:24.677Z,1006.23
2022-10-22T00:44:34.880Z,1006.19
2022-10-22T00:45:24.690Z,1006.14
2022-10-22T00:46:24.641Z,1006.09
2022-10-22T00:47:24.639Z,1006.11
2022-10-22T00:48:24.617Z,1006.19
2022-10-22T00:49:24.606Z,1006.17
2022-10-22T00:50:24.627Z,1006.23
2022-10-22T00:51:24.606Z,1006.18
2022-10-22T00:52:24.609Z,1006.13
2022-10-22T00:53:24.568Z,1006.17
2022-10-22T00:54:24.558Z,1006.17
2022-10-22T00:55:24.572Z,1006.15
2022-10-22T00:56:24.548Z,1006.13
2022-10-22T00:57:24.513Z,1006.12
2022-10-22T00:58:24.536Z,1006.14
2022-10-22T00:59:24.521Z,1006.12
2022-10-22T01:00:24.490Z,1006.17
2022-10-22T01:01:24.571Z,1006.19
2022-10-22T01:02:24.468Z,1006.15
2022-10-22T01:03:24.471Z,1006.12
2022-10-22T01:04:24.441Z,1006.15
2022-10-22T01:05:24.431Z,1006.13
2022-10-22T01:06:24.425Z,1006.16
2022-10-22T01:07:24.433Z,1006.17
2022-10-22T01:08:24.403Z,1006.17
2022-10-22T01:09:24.394Z,1006.16
2022-10-22T01:10:24.377Z,1006.13
2022-10-22T01:11:24.398Z,1006.09
2022-10-22T01:12:24.365Z,1006.05
2022-10-22T01:13:24.392Z,1006.10
2022-10-22T01:14:24.334Z,1006.08
2022-10-22T01:15:24.334Z,1006.13
2022-10-22T01:16:24.313Z,1006.09
2022-10-22T01:17:24.305Z,1006.09
2022-10-22T01:18:24.289Z,1006.10
2022-10-22T01:19:24.314Z,1006.13
2022-10-22T01:20:24.298Z,1006.08
2022-10-22T01:21:24.285Z,1006.14
2022-10-22T01:22:24.260Z,1006.15
2022-10-22T01:23:24.226Z,1006.14
2022-10-22T01:24:24.221Z,1006.15
2022-10-22T01:25:24.213Z,1006.07
2022-10-22T01:27:24.216Z,1006.02
2022-10-22T01:28:24.179Z,1006.05
2022-10-22T01:29:24.189Z,1006.03
2022-10-22T01:30:24.157Z,1006.09
2022-10-22T01:31:24.163Z,1006.04
2022-10-22T01:32:24.149Z,1005.99
2022-10-22T01:33:24.119Z,1006.02
2022-10-22T01:34:24.256Z,1005.95
2022-10-22T01:35:24.181Z,1005.91
2022-10-22T01:36:24.100Z,1005.99
2022-10-22T01:37:24.126Z,1005.95
2022-10-22T01:38:24.113Z,1005.94
2022-10-22T01:39:24.060Z,1005.95
2022-10-22T01:40:24.057Z,1005.92
2022-10-22T01:41:24.036Z,1005.93
2022-10-22T01:42:24.022Z,1005.90
2022-10-22T01:43:24.013Z,1005.93
2022-10-22T01:44:24.099Z,1005.93
2022-10-22T01:45:23.990Z,1005.91
2022-10-22T01:46:23.980Z,1005.87
2022-10-22T01:47:23.973Z,1005.92
2022-10-22T01:48:23.979Z,1005.88
2022-10-22T01:49:23.955Z,1005.97
2022-10-22T01:50:23.979Z,1005.96
2022-10-22T01:51:23.966Z,1005.96
2022-10-22T01:52:23.935Z,1005.97
2022-10-22T01:53:23.921Z,1005.90
2022-10-22T01:54:23.884Z,1005.84
2022-10-22T01:55:23.900Z,1005.92
2022-10-22T01:56:23.919Z,1005.91
2022-10-22T01:57:23.870Z,1005.91
2022-10-22T01:58:23.876Z,1005.84
2022-10-22T01:59:23.835Z,1005.83
2022-10-22T02:00:23.837Z,1005.79
2022-10-22T02:01:23.821Z,1005.80
2022-10-22T02:02:23.846Z,1005.80
2022-10-22T02:03:24.015Z,1005.82
2022-10-22T02:04:23.798Z,1005.91
2022-10-22T02:05:23.768Z,1005.87
2022-10-22T02:06:23.764Z,1005.86
2022-10-22T02:07:23.749Z,1005.80
2022-10-22T02:08:23.774Z,1005.83
2022-10-22T02:09:23.738Z,1005.86
2022-10-22T02:10:23.739Z,1005.87
2022-10-22T02:11:23.751Z,1005.90
2022-10-22T02:12:23.709Z,1005.85
2022-10-22T02:13:23.718Z,1005.86
2022-10-22T02:14:23.675Z,1005.79
2022-10-22T02:15:23.695Z,1005.83
2022-10-22T02:16:23.664Z,1005.90
2022-10-22T02:17:23.632Z,1005.89
2022-10-22T02:18:23.699Z,1005.89
2022-10-22T02:19:23.621Z,1005.89
2022-10-22T02:20:23.634Z,1005.88
2022-10-22T02:21:23.602Z,1005.87
2022-10-22T02:22:23.578Z,1005.89
2022-10-22T02:23:23.577Z,1005.96
2022-10-22T02:24:23.563Z,1005.91
2022-10-22T02:25:23.579Z,1005.91
2022-10-22T02:26:23.546Z,1005.89
2022-10-22T02:27:26.029Z,1005.96
2022-10-22T02:28:23.530Z,1005.95
2022-10-22T02:29:23.506Z,1005.95
2022-10-22T02:30:23.531Z,1005.93
2022-10-22T02:31:23.485Z,1005.93
2022-10-22T02:32:23.486Z,1005.96
2022-10-22T02:33:23.463Z,1006.00
2022-10-22T02:34:23.456Z,1005.98
2022-10-22T02:35:23.466Z,1005.96
2022-10-22T02:36:23.431Z,1006.03
2022-10-22T02:37:23.415Z,1006.05
2022-10-22T02:38:23.435Z,1006.08
2022-10-22T02:39:23.412Z,1005.95
2022-10-22T02:40:23.388Z,1005.97
2022-10-22T02:41:23.414Z,1005.93
2022-10-22T02:42:23.380Z,1006.01
2022-10-22T02:43:23.354Z,1006.01
2022-10-22T02:44:23.379Z,1005.96
2022-10-22T02:45:24.270Z,1006.00
2022-10-22T02:46:23.319Z,1006.00
2022-10-22T02:47:24.300Z,1005.93
2022-10-22T02:48:23.307Z,1006.01
2022-10-22T02:49:23.271Z,1006.03
2022-10-22T02:50:23.282Z,1006.12
2022-10-22T02:51:23.261Z,1006.10
2022-10-22T02:52:23.280Z,1006.09
2022-10-22T02:53:23.263Z,1006.09
2022-10-22T02:54:23.244Z,1006.04
2022-10-22T02:55:24.186Z,1006.09
2022-10-22T02:56:23.207Z,1006.11
2022-10-22T02:57:23.350Z,1006.09
2022-10-22T02:58:23.219Z,1006.08
2022-10-22T02:59:23.184Z,1006.06
2022-10-22T03:00:23.164Z,1006.09
2022-10-22T03:01:23.238Z,1006.14
2022-10-22T03:02:23.159Z,1006.09
2022-10-22T03:03:23.125Z,1006.14
2022-10-22T03:04:23.132Z,1006.19
2022-10-22T03:05:23.095Z,1006.20
2022-10-22T03:06:23.170Z,1006.20
2022-10-22T03:07:23.085Z,1006.14
2022-10-22T03:08:23.068Z,1006.17
2022-10-22T03:09:24.859Z,1006.16
2022-10-22T03:10:23.060Z,1006.14
2022-10-22T03:11:23.981Z,1006.11
2022-10-22T03:12:23.069Z,1006.16
2022-10-22T03:13:23.030Z,1006.15
2022-10-22T03:14:23.014Z,1006.19
2022-10-22T03:15:23.020Z,1006.13
2022-10-22T03:16:23.003Z,1006.11
2022-10-22T03:17:22.969Z,1006.11
2022-10-22T03:18:22.996Z,1006.08
2022-10-22T03:19:22.959Z,1006.10
2022-10-22T03:20:22.939Z,1006.10
2022-10-22T03:21:22.921Z,1006.05
2022-10-22T03:22:22.925Z,1006.14
2022-10-22T03:23:22.938Z,1006.10
2022-10-22T03:24:22.900Z,1006.11
2022-10-22T03:25:22.880Z,1006.14
2022-10-22T03:26:22.873Z,1006.11
2022-10-22T03:27:22.859Z,1006.09
2022-10-22T03:28:22.853Z,1006.14
2022-10-22T03:29:22.860Z,1006.20
2022-10-22T03:30:22.838Z,1006.11
2022-10-22T03:31:22.817Z,1006.17
2022-10-22T03:32:22.813Z,1006.14
2022-10-22T03:33:22.804Z,1006.26
2022-10-22T03:34:22.825Z,1006.20
2022-10-22T03:35:22.785Z,1006.21
2022-10-22T03:36:22.777Z,1006.26
2022-10-22T03:37:22.767Z,1006.24
2022-10-22T03:38:22.739Z,1006.23
2022-10-22T03:39:22.735Z,1006.25
2022-10-22T03:40:22.773Z,1006.23
2022-10-22T03:41:22.717Z,1006.27
2022-10-22T03:42:22.715Z,1006.24
2022-10-22T03:43:22.694Z,1006.25
2022-10-22T03:44:22.679Z,1006.25
2022-10-22T03:45:22.674Z,1006.25
2022-10-22T03:46:22.675Z,1006.25
2022-10-22T03:47:22.656Z,1006.27
2022-10-22T03:48:22.634Z,1006.29
2022-10-22T03:49:22.617Z,1006.27
2022-10-22T03:50:22.659Z,1006.31
2022-10-22T03:51:22.601Z,1006.28
2022-10-22T03:52:22.590Z,1006.29
2022-10-22T03:53:22.585Z,1006.26
2022-10-22T03:54:22.568Z,1006.26
2022-10-22T03:55:22.593Z,1006.27
2022-10-22T03:56:22.636Z,1006.27
2022-10-22T03:57:22.523Z,1006.27
2022-10-22T03:58:22.523Z,1006.26
2022-10-22T03:59:22.539Z,1006.26
2022-10-22T04:00:22.501Z,1006.36
2022-10-22T04:01:22.636Z,1006.29
2022-10-22T04:02:22.501Z,1006.32
2022-10-22T04:03:22.466Z,1006.32
2022-10-22T04:04:22.462Z,1006.37
2022-10-22T04:05:22.457Z,1006.34
2022-10-22T04:06:22.434Z,1006.38
2022-10-22T04:07:22.444Z,1006.41
2022-10-22T04:08:22.403Z,1006.37
2022-10-22T04:09:22.415Z,1006.38
2022-10-22T04:10:22.399Z,1006.42
2022-10-22T04:11:22.380Z,1006.42
2022-10-22T04:12:22.418Z,1006.42
2022-10-22T04:13:22.349Z,1006.42
2022-10-22T04:14:22.365Z,1006.45
2022-10-22T04:15:23.809Z,1006.49
2022-10-22T04:16:24.026Z,1006.53
2022-10-22T04:17:22.311Z,1006.51
2022-10-22T04:18:22.327Z,1006.57
2022-10-22T04:19:22.283Z,1006.52
2022-10-22T04:20:24.247Z,1006.56
2022-10-22T04:21:22.277Z,1006.52
2022-10-22T04:22:22.298Z,1006.57
2022-10-22T04:23:22.256Z,1006.54
2022-10-22T04:24:22.238Z,1006.55
2022-10-22T04:25:22.229Z,1006.60
2022-10-22T04:26:22.410Z,1006.58
2022-10-22T04:27:22.203Z,1006.57
2022-10-22T04:28:22.210Z,1006.59
2022-10-22T04:29:22.171Z,1006.59
2022-10-22T04:30:22.181Z,1006.58
2022-10-22T04:31:22.181Z,1006.62
2022-10-22T04:32:22.149Z,1006.62
2022-10-22T04:33:22.131Z,1006.63
2022-10-22T04:34:22.135Z,1006.59
2022-10-22T04:35:22.153Z,1006.65
2022-10-22T04:36:22.141Z,1006.66
2022-10-22T04:37:22.089Z,1006.67
2022-10-22T04:38:23.037Z,1006.64
2022-10-22T04:39:22.083Z,1006.62
2022-10-22T04:40:22.083Z,1006.66
2022-10-22T04:41:22.053Z,1006.63
2022-10-22T04:42:22.073Z,1006.71
2022-10-22T04:43:22.067Z,1006.72
2022-10-22T04:44:22.022Z,1006.68
2022-10-22T04:45:22.020Z,1006.70
2022-10-22T04:46:21.998Z,1006.68
2022-10-22T04:47:21.975Z,1006.71
2022-10-22T04:48:22.154Z,1006.68
2022-10-22T04:49:21.957Z,1006.67
2022-10-22T04:50:22.007Z,1006.66
2022-10-22T04:51:22.057Z,1006.65
2022-10-22T04:52:21.924Z,1006.69
2022-10-22T04:53:21.929Z,1006.65
2022-10-22T04:54:21.946Z,1006.64
2022-10-22T04:55:21.952Z,1006.65
2022-10-22T04:56:21.877Z,1006.65
2022-10-22T04:57:21.879Z,1006.69
2022-10-22T04:58:21.858Z,1006.69
2022-10-22T04:59:21.869Z,1006.76
2022-10-22T05:00:21.846Z,1006.70
2022-10-22T05:01:22.017Z,1006.69
2022-10-22T05:02:21.822Z,1006.69
2022-10-22T05:03:21.851Z,1006.68
2022-10-22T05:04:21.809Z,1006.77
2022-10-22T05:05:21.778Z,1006.71
2022-10-22T05:06:21.789Z,1006.73
2022-10-22T05:07:21.955Z,1006.75
2022-10-22T05:08:21.746Z,1006.77
2022-10-22T05:09:21.782Z,1006.77
2022-10-22T05:10:21.731Z,1006.85
2022-10-22T05:11:21.715Z,1006.77
2022-10-22T05:12:21.719Z,1006.82
2022-10-22T05:13:21.747Z,1006.83
2022-10-22T05:14:21.673Z,1006.86
2022-10-22T05:15:21.711Z,1006.84
2022-10-22T05:16:21.657Z,1006.87
2022-10-22T05:17:21.644Z,1006.85
2022-10-22T05:18:22.642Z,1006.90
2022-10-22T05:19:21.673Z,1006.94
2022-10-22T05:20:21.604Z,1006.91
2022-10-22T05:21:21.614Z,1006.91
2022-10-22T05:22:21.606Z,1006.95
2022-10-22T05:23:21.593Z,1006.96
2022-10-22T05:24:21.584Z,1006.94
2022-10-22T05:25:21.576Z,1006.92
2022-10-22T05:26:21.539Z,1006.92
2022-10-22T05:27:21.627Z,1006.95
2022-10-22T05:28:21.526Z,1006.94
2022-10-22T05:29:21.507Z,1006.95
2022-10-22T05:30:21.505Z,1006.93
2022-10-22T05:31:21.495Z,1006.94
2022-10-22T05:32:21.488Z,1006.96
2022-10-22T05:33:24.027Z,1006.96
2022-10-22T05:34:21.491Z,1006.95
2022-10-22T05:35:21.459Z,1006.98
2022-10-22T05:36:21.461Z,1006.95
2022-10-22T05:37:21.449Z,1007.03
2022-10-22T05:38:21.440Z,1006.95
2022-10-22T05:39:22.384Z,1007.01
2022-10-22T05:40:30.590Z,1007.04
2022-10-22T05:41:22.384Z,1007.05
2022-10-22T05:42:21.361Z,1007.07
2022-10-22T05:43:21.361Z,1007.05
2022-10-22T05:44:21.373Z,1007.06
2022-10-22T05:45:23.003Z,1007.01
2022-10-22T05:46:22.860Z,1007.03
2022-10-22T05:47:21.313Z,1007.04
2022-10-22T05:48:21.334Z,1007.06
2022-10-22T05:49:21.317Z,1007.04
2022-10-22T05:50:21.313Z,1007.06
2022-10-22T05:51:21.283Z,1007.10
2022-10-22T05:52:21.265Z,1007.12
2022-10-22T05:53:21.243Z,1007.15
2022-10-22T05:54:21.264Z,1007.12
2022-10-22T05:55:21.224Z,1007.19
2022-10-22T05:56:21.216Z,1007.13
2022-10-22T05:57:21.200Z,1007.14
2022-10-22T05:58:21.185Z,1007.16
2022-10-22T05:59:21.186Z,1007.16
2022-10-22T06:00:21.189Z,1007.15
2022-10-22T06:01:21.162Z,1007.18
2022-10-22T06:02:21.211Z,1007.20
2022-10-22T06:03:21.137Z,1007.21
2022-10-22T06:04:21.117Z,1007.15
2022-10-22T06:05:21.106Z,1007.18
2022-10-22T06:06:21.122Z,1007.20
2022-10-22T06:07:21.479Z,1007.21
2022-10-22T06:08:21.108Z,1007.22
2022-10-22T06:09:21.064Z,1007.26
2022-10-22T06:10:21.062Z,1007.26
2022-10-22T06:11:21.033Z,1007.23
2022-10-22T06:12:21.033Z,1007.27
2022-10-22T06:13:21.019Z,1007.26
2022-10-22T06:14:21.065Z,1007.25
2022-10-22T06:15:21.001Z,1007.24
2022-10-22T06:16:20.990Z,1007.29
2022-10-22T06:17:21.022Z,1007.28
2022-10-22T06:18:21.218Z,1007.32
2022-10-22T06:19:20.984Z,1007.32
2022-10-22T06:20:20.932Z,1007.31
2022-10-22T06:21:20.922Z,1007.38
2022-10-22T06:22:20.903Z,1007.40
2022-10-22T06:23:20.927Z,1007.39
2022-10-22T06:24:20.920Z,1007.43
2022-10-22T06:25:20.933Z,1007.41
2022-10-22T06:26:20.875Z,1007.49
2022-10-22T06:27:20.912Z,1007.47
2022-10-22T06:28:20.883Z,1007.49
2022-10-22T06:29:21.784Z,1007.51
2022-10-22T06:30:20.836Z,1007.55
2022-10-22T06:31:20.822Z,1007.58
2022-10-22T06:32:20.806Z,1007.56
2022-10-22T06:33:20.825Z,1007.56
2022-10-22T06:34:20.779Z,1007.61
2022-10-22T06:35:20.764Z,1007.59
2022-10-22T06:38:33.374Z,1007.63
2022-10-22T06:39:32.646Z,1007.67
2022-10-22T06:40:32.576Z,1007.67
2022-10-22T06:41:32.528Z,1007.65
2022-10-22T06:53:06.672Z,1007.95
2022-10-22T06:54:04.979Z,1007.94
2022-10-22T06:55:05.013Z,1007.98
2022-10-22T06:56:04.971Z,1007.95
2022-10-22T06:57:05.032Z,1007.97
2022-10-22T06:58:04.940Z,1007.96
2022-10-22T06:59:04.950Z,1007.95
2022-10-22T07:00:04.951Z,1008.03
2022-10-22T07:01:06.452Z,1008.05
2022-10-22T07:02:04.912Z,1008.01
2022-10-22T07:03:04.915Z,1008.04
2022-10-22T07:04:04.889Z,1008.12
2022-10-22T07:05:04.870Z,1008.07
2022-10-22T07:06:04.858Z,1008.10
2022-10-22T07:07:04.861Z,1008.15
2022-10-22T07:08:04.832Z,1008.13
2022-10-22T07:09:04.900Z,1008.18
2022-10-22T07:10:05.548Z,1008.09
2022-10-22T07:11:04.813Z,1008.09
2022-10-22T07:12:04.785Z,1008.12
2022-10-22T07:13:04.807Z,1008.15
2022-10-22T07:14:04.766Z,1008.19
2022-10-22T07:15:04.766Z,1008.16
2022-10-22T07:16:04.752Z,1008.16
2022-10-22T07:17:04.735Z,1008.20
2022-10-22T07:18:04.733Z,1008.18
2022-10-22T07:19:04.755Z,1008.23
2022-10-22T07:20:05.682Z,1008.24
2022-10-22T07:21:04.686Z,1008.23
2022-10-22T07:22:04.720Z,1008.25
2022-10-22T07:23:04.672Z,1008.27
2022-10-22T07:24:04.693Z,1008.29
2022-10-22T07:25:07.362Z,1008.32
2022-10-22T07:26:04.709Z,1008.32
2022-10-22T07:27:08.139Z,1008.35
2022-10-22T07:28:06.650Z,1008.38
2022-10-22T07:29:04.596Z,1008.41
2022-10-22T07:30:04.594Z,1008.39
2022-10-22T07:31:04.604Z,1008.45
2022-10-22T07:32:04.584Z,1008.43
2022-10-22T07:33:04.563Z,1008.49
2022-10-22T07:34:04.552Z,1008.50
2022-10-22T07:35:05.478Z,1008.52
2022-10-22T07:36:04.536Z,1008.48
2022-10-22T07:37:05.524Z,1008.51
2022-10-22T07:38:04.550Z,1008.49
2022-10-22T07:39:04.488Z,1008.50
2022-10-22T07:40:04.483Z,1008.55
2022-10-22T07:41:04.464Z,1008.54
2022-10-22T07:42:04.467Z,1008.57
2022-10-22T07:43:05.488Z,1008.56
2022-10-22T07:44:04.448Z,1008.61
2022-10-22T07:45:04.425Z,1008.60
2022-10-22T07:46:04.436Z,1008.61
2022-10-22T07:47:05.846Z,1008.65
2022-10-22T07:48:05.530Z,1008.69
2022-10-22T07:49:05.340Z,1008.66
2022-10-22T07:50:04.472Z,1008.65
2022-10-22T07:51:04.383Z,1008.66
2022-10-22T07:52:04.372Z,1008.68
2022-10-22T07:53:04.336Z,1008.65
2022-10-22T07:54:05.130Z,1008.62
2022-10-22T07:55:04.384Z,1008.65
2022-10-22T07:56:04.319Z,1008.65
2022-10-22T07:57:05.252Z,1008.67
2022-10-22T07:58:04.285Z,1008.70
2022-10-22T07:59:04.330Z,1008.74
2022-10-22T08:00:04.282Z,1008.74
2022-10-22T08:01:04.367Z,1008.74
2022-10-22T08:02:04.314Z,1008.74
2022-10-22T08:03:04.242Z,1008.74
2022-10-22T08:04:04.221Z,1008.83
2022-10-22T08:05:04.196Z,1008.80
2022-10-22T08:06:04.203Z,1008.81
2022-10-22T08:07:04.209Z,1008.80
2022-10-22T08:08:04.267Z,1008.84
2022-10-22T08:09:04.188Z,1008.89
2022-10-22T08:10:05.607Z,1008.86
2022-10-22T08:11:04.170Z,1008.88
2022-10-22T08:12:05.073Z,1008.90
2022-10-22T08:13:04.118Z,1008.93
2022-10-22T08:14:04.103Z,1008.95
2022-10-22T08:15:04.110Z,1008.93
2022-10-22T08:16:04.112Z,1008.97
2022-10-22T08:17:04.109Z,1009.02
2022-10-22T08:18:04.087Z,1009.07
2022-10-22T08:19:04.035Z,1009.05
2022-10-22T08:20:04.036Z,1009.03
2022-10-22T08:21:04.037Z,1009.06
2022-10-22T08:22:04.009Z,1009.10
2022-10-22T08:23:04.053Z,1009.14
2022-10-22T08:24:04.054Z,1009.13
2022-10-22T08:25:03.991Z,1009.16
2022-10-22T08:26:03.968Z,1009.15
2022-10-22T08:27:04.910Z,1009.20
2022-10-22T08:28:03.949Z,1009.19
2022-10-22T08:29:03.987Z,1009.21
2022-10-22T08:30:03.935Z,1009.21
2022-10-22T08:31:03.921Z,1009.26
2022-10-22T08:32:03.904Z,1009.24
2022-10-22T08:33:04.017Z,1009.28
2022-10-22T08:34:03.885Z,1009.24
2022-10-22T08:35:03.921Z,1009.30
2022-10-22T08:36:03.851Z,1009.29
2022-10-22T08:37:03.865Z,1009.33
2022-10-22T08:38:03.852Z,1009.25
2022-10-22T08:39:03.827Z,1009.35
2022-10-22T08:40:03.832Z,1009.27
2022-10-22T08:41:03.830Z,1009.35
2022-10-22T08:42:03.811Z,1009.34
2022-10-22T08:43:03.781Z,1009.30
2022-10-22T08:44:03.790Z,1009.33
2022-10-22T08:45:03.783Z,1009.34
2022-10-22T08:46:03.750Z,1009.33
2022-10-22T08:47:03.729Z,1009.37
2022-10-22T08:48:03.764Z,1009.40
2022-10-22T08:49:04.760Z,1009.40
2022-10-22T08:50:03.722Z,1009.40
2022-10-22T08:51:03.697Z,1009.38
2022-10-22T08:52:03.686Z,1009.39
2022-10-22T08:53:03.667Z,1009.43
2022-10-22T08:54:03.719Z,1009.45
2022-10-22T08:55:03.642Z,1009.41
2022-10-22T08:56:03.636Z,1009.43
2022-10-22T08:57:03.616Z,1009.45
2022-10-22T08:58:03.626Z,1009.48
2022-10-22T08:59:03.667Z,1009.48
2022-10-22T09:00:03.587Z,1009.50
2022-10-22T09:01:04.530Z,1009.49
2022-10-22T09:02:03.567Z,1009.51
2022-10-22T09:03:03.559Z,1009.51
2022-10-22T09:04:03.560Z,1009.53
2022-10-22T09:05:03.559Z,1009.54
2022-10-22T09:06:03.543Z,1009.51
2022-10-22T09:07:03.519Z,1009.55
2022-10-22T09:08:03.539Z,1009.55
2022-10-22T09:09:03.556Z,1009.53
2022-10-22T09:10:03.493Z,1009.52
2022-10-22T09:11:03.469Z,1009.49
2022-10-22T09:12:03.491Z,1009.56
2022-10-22T09:13:03.461Z,1009.54
2022-10-22T09:14:03.515Z,1009.54
2022-10-22T09:15:03.432Z,1009.59
2022-10-22T09:16:04.413Z,1009.64
2022-10-22T09:17:03.422Z,1009.57
2022-10-22T09:18:03.417Z,1009.57
2022-10-22T09:19:03.417Z,1009.58
2022-10-22T09:20:03.371Z,1009.68
2022-10-22T09:21:05.335Z,1009.65
2022-10-22T09:22:03.365Z,1009.65
2022-10-22T09:23:03.364Z,1009.66
2022-10-22T09:24:03.348Z,1009.68
2022-10-22T09:25:03.334Z,1009.70
2022-10-22T09:26:03.363Z,1009.68
2022-10-22T09:27:03.297Z,1009.70
2022-10-22T09:28:03.309Z,1009.71
2022-10-22T09:29:03.290Z,1009.76
2022-10-22T09:30:03.440Z,1009.75
2022-10-22T09:31:03.282Z,1009.78
2022-10-22T09:32:03.252Z,1009.72
2022-10-22T09:33:03.249Z,1009.76
2022-10-22T09:34:03.223Z,1009.77
2022-10-22T09:35:03.248Z,1009.79
2022-10-22T09:36:03.217Z,1009.77
2022-10-22T09:37:03.181Z,1009.80
2022-10-22T09:38:03.174Z,1009.77
2022-10-22T09:39:03.208Z,1009.79
2022-10-22T09:40:03.140Z,1009.77
2022-10-22T09:41:03.237Z,1009.79
2022-10-22T09:42:03.127Z,1009.81
2022-10-22T09:43:03.112Z,1009.81
2022-10-22T09:44:03.110Z,1009.86
2022-10-22T09:45:03.150Z,1009.82
2022-10-22T09:46:03.150Z,1009.80
2022-10-22T09:47:03.092Z,1009.79
2022-10-22T09:48:03.672Z,1009.79
2022-10-22T09:49:03.056Z,1009.84
2022-10-22T09:50:03.079Z,1009.81
2022-10-22T09:51:03.099Z,1009.79
2022-10-22T09:52:03.036Z,1009.83
2022-10-22T09:53:02.997Z,1009.83
2022-10-22T09:54:03.076Z,1009.83
2022-10-22T09:55:03.048Z,1009.82
2022-10-22T09:56:02.990Z,1009.85
2022-10-22T09:57:02.964Z,1009.86
2022-10-22T09:58:02.945Z,1009.81
2022-10-22T09:59:02.978Z,1009.86
2022-10-22T10:00:02.927Z,1009.94
2022-10-22T10:01:02.997Z,1009.92
2022-10-22T10:02:13.607Z,1009.98
2022-10-22T10:03:03.936Z,1009.98
2022-10-22T10:04:06.908Z,1010.02
2022-10-22T10:05:03.897Z,1010.01
2022-10-22T10:06:05.070Z,1009.96
2022-10-22T10:07:02.871Z,1010.04
2022-10-22T10:08:02.854Z,1010.01
2022-10-22T10:09:02.918Z,1010.02
2022-10-22T10:10:02.809Z,1010.00
2022-10-22T10:11:02.916Z,1010.02
2022-10-22T10:12:02.792Z,1010.12
2022-10-22T10:13:02.783Z,1010.08
2022-10-22T10:14:02.787Z,1010.10
2022-10-22T10:15:02.766Z,1010.10
2022-10-22T10:16:02.742Z,1010.12
2022-10-22T10:17:02.766Z,1010.11
2022-10-22T10:18:02.724Z,1010.16
2022-10-22T10:19:02.713Z,1010.10
2022-10-22T10:20:04.060Z,1010.17
2022-10-22T10:21:02.794Z,1010.15
2022-10-22T10:22:02.683Z,1010.16
2022-10-22T10:23:02.666Z,1010.20
2022-10-22T10:24:02.676Z,1010.16
2022-10-22T10:25:02.655Z,1010.21
2022-10-22T10:26:02.678Z,1010.21
2022-10-22T10:27:02.644Z,1010.21
2022-10-22T10:28:02.776Z,1010.20
2022-10-22T10:29:02.626Z,1010.25
2022-10-22T10:30:02.625Z,1010.27
2022-10-22T10:31:03.525Z,1010.26
2022-10-22T10:32:02.584Z,1010.25
2022-10-22T10:33:02.935Z,1010.20
2022-10-22T10:34:02.550Z,1010.27
2022-10-22T10:35:02.539Z,1010.20
2022-10-22T10:36:02.518Z,1010.26
2022-10-22T10:37:02.510Z,1010.25
2022-10-22T10:38:02.501Z,1010.25
2022-10-22T10:39:02.521Z,1010.30
2022-10-22T10:40:02.493Z,1010.29
2022-10-22T10:41:02.500Z,1010.32
2022-10-22T10:42:02.450Z,1010.38
2022-10-22T10:43:02.462Z,1010.35
2022-10-22T10:44:02.451Z,1010.34
2022-10-22T10:45:02.458Z,1010.33
2022-10-22T10:46:02.407Z,1010.32
2022-10-22T10:47:02.442Z,1010.38
2022-10-22T10:48:02.376Z,1010.25
2022-10-22T10:49:02.501Z,1010.26
2022-10-22T10:50:02.352Z,1010.28
2022-10-22T10:51:03.197Z,1010.33
2022-10-22T10:52:02.357Z,1010.31
2022-10-22T10:53:02.377Z,1010.28
2022-10-22T10:54:02.338Z,1010.29
2022-10-22T10:55:02.333Z,1010.32
2022-10-22T10:56:02.318Z,1010.30
2022-10-22T10:57:02.338Z,1010.33
2022-10-22T10:58:02.369Z,1010.30
2022-10-22T10:59:02.307Z,1010.36
2022-10-22T11:00:02.288Z,1010.30
2022-10-22T11:01:02.257Z,1010.30
2022-10-22T11:02:03.698Z,1010.33
2022-10-22T11:03:04.151Z,1010.28
2022-10-22T11:04:02.217Z,1010.35
2022-10-22T11:05:03.048Z,1010.35
2022-10-22T11:06:02.213Z,1010.35
2022-10-22T11:07:10.925Z,1010.41
2022-10-22T11:08:03.178Z,1010.40
2022-10-22T11:09:02.788Z,1010.40
2022-10-22T11:10:02.742Z,1010.44
2022-10-22T11:11:02.194Z,1010.39
2022-10-22T11:12:03.598Z,1010.43
2022-10-22T11:13:02.129Z,1010.45
2022-10-22T11:14:02.105Z,1010.36
2022-10-22T11:15:02.111Z,1010.37
2022-10-22T11:16:02.121Z,1010.41
2022-10-22T11:17:02.622Z,1010.41
2022-10-22T11:18:02.170Z,1010.42
2022-10-22T11:19:02.081Z,1010.46
2022-10-22T11:20:02.046Z,1010.41
2022-10-22T11:21:02.488Z,1010.42
2022-10-22T11:22:02.963Z,1010.47
2022-10-22T11:23:18.806Z,1010.53
2022-10-22T11:24:03.036Z,1010.61
2022-10-22T11:25:02.049Z,1010.54
2022-10-22T11:26:01.983Z,1010.49
2022-10-22T11:27:01.993Z,1010.52
2022-10-22T11:28:07.815Z,1010.45
2022-10-22T11:29:02.949Z,1010.47
2022-10-22T11:30:02.012Z,1010.52
2022-10-22T11:31:01.953Z,1010.52
2022-10-22T11:32:02.045Z,1010.52
2022-10-22T11:33:01.906Z,1010.55
2022-10-22T11:34:09.935Z,1010.53
2022-10-22T11:35:02.869Z,1010.59
2022-10-22T11:36:01.867Z,1010.60
2022-10-22T11:37:01.887Z,1010.60
2022-10-22T11:38:02.822Z,1010.67
2022-10-22T11:39:01.838Z,1010.61
2022-10-22T11:40:01.813Z,1010.67
2022-10-22T11:41:01.825Z,1010.63
2022-10-22T11:42:01.789Z,1010.66
2022-10-22T11:43:01.807Z,1010.60
2022-10-22T11:44:01.771Z,1010.60
2022-10-22T11:45:01.781Z,1010.58
2022-10-22T11:46:01.881Z,1010.63
2022-10-22T11:47:01.761Z,1010.61
2022-10-22T11:48:12.009Z,1010.63
2022-10-22T11:49:01.715Z,1010.61
2022-10-22T11:50:01.729Z,1010.60
2022-10-22T11:51:01.734Z,1010.58
2022-10-22T11:52:04.357Z,1010.58
2022-10-22T11:53:01.729Z,1010.57
2022-10-22T11:54:01.706Z,1010.54
2022-10-22T11:55:02.004Z,1010.50
2022-10-22T11:56:01.634Z,1010.51
2022-10-22T11:57:01.633Z,1010.51
2022-10-22T11:58:01.614Z,1010.59
2022-10-22T11:59:01.632Z,1010.58
2022-10-22T12:00:01.625Z,1010.58
2022-10-22T12:01:01.601Z,1010.57
2022-10-22T12:02:01.586Z,1010.53
2022-10-22T12:03:03.318Z,1010.60
2022-10-22T12:04:01.548Z,1010.55
2022-10-22T12:05:02.480Z,1010.49
2022-10-22T12:06:01.743Z,1010.52
2022-10-22T12:07:01.824Z,1010.52
2022-10-22T12:08:01.504Z,1010.53
2022-10-22T12:09:01.863Z,1010.50
2022-10-22T12:10:01.622Z,1010.52
2022-10-22T12:11:01.484Z,1010.48
2022-10-22T12:12:01.458Z,1010.57
2022-10-22T12:13:01.520Z,1010.52
2022-10-22T12:14:01.791Z,1010.59
2022-10-22T12:15:02.080Z,1010.58
2022-10-22T12:16:01.730Z,1010.51
2022-10-22T12:17:01.413Z,1010.51
2022-10-22T12:18:02.392Z,1010.50
2022-10-22T12:19:02.247Z,1010.51